Time;durP1;ratioP1;P1;durP2;ratioP2;P2;SDS_P1;SDS_P2;PMS_P1;PMS_P2;Temp;Humidity;BMP_temperature;BMP_pressure;BME280_temperature;BME280_humidity;BME280_pressure;Samples;Min_cycle;Max_cycle;Signal;HPM_P1;HPM_P2
2021/04/07 00:00:32;;;;;;;2.00;1.70;;;;;;;-0.49;65.07;96000.63;5093364;28;20032;-77
2021/04/07 00:03:01;;;;;;;2.00;1.90;;;;;;;-0.50;64.95;96001.63;5093064;28;20437;-77
2021/04/07 00:05:32;;;;;;;2.67;2.47;;;;;;;-0.54;64.87;96002.09;5094368;28;20039;-77
2021/04/07 00:08:01;;;;;;;3.40;2.03;;;;;;;-0.55;65.14;96000.47;5096702;28;20040;-77
2021/04/07 00:10:36;;;;;;;2.50;2.08;;;;;;;-0.53;65.20;95998.53;5095676;28;20054;-77
2021/04/07 00:13:04;;;;;;;5.05;2.08;;;;;;;-0.54;65.27;95995.16;5079081;28;20518;-77
2021/04/07 00:15:33;;;;;;;2.85;2.00;;;;;;;-0.51;65.26;96002.56;5096551;28;20047;-77
2021/04/07 00:18:02;;;;;;;2.95;2.30;;;;;;;-0.51;65.61;95996.63;5095521;28;20048;-77
2021/04/07 00:20:32;;;;;;;3.53;2.42;;;;;;;-0.51;65.49;95992.25;5096485;28;20377;-77
2021/04/07 00:23:00;;;;;;;3.13;2.47;;;;;;;-0.47;65.58;95997.91;5096990;28;20036;-77
2021/04/07 00:25:28;;;;;;;3.15;2.63;;;;;;;-0.46;65.52;96000.34;5095305;28;20051;-78
2021/04/07 00:27:56;;;;;;;2.53;2.33;;;;;;;-0.42;66.05;96004.19;5096573;28;20035;-77
2021/04/07 00:30:25;;;;;;;3.05;2.83;;;;;;;-0.36;65.98;96004.50;5095482;28;20044;-77
2021/04/07 00:32:54;;;;;;;4.07;2.65;;;;;;;-0.32;65.83;96006.59;5078005;28;20047;-77
2021/04/07 00:35:23;;;;;;;3.20;2.22;;;;;;;-0.29;65.63;96014.03;5096090;28;20384;-77
2021/04/07 00:37:51;;;;;;;3.08;2.42;;;;;;;-0.30;65.76;96020.13;5096552;28;20040;-77
2021/04/07 00:40:19;;;;;;;2.58;1.90;;;;;;;-0.38;65.20;96019.31;5096020;28;20373;-77
2021/04/07 00:42:49;;;;;;;2.10;1.92;;;;;;;-0.43;65.65;96017.22;5096386;28;20028;-77
2021/04/07 00:45:18;;;;;;;2.22;2.03;;;;;;;-0.48;65.40;96016.91;5095264;28;20043;-77
2021/04/07 00:47:48;;;;;;;2.38;2.17;;;;;;;-0.49;65.60;96015.28;5094983;28;20047;-78
2021/04/07 00:50:18;;;;;;;2.50;2.05;;;;;;;-0.47;65.68;96018.50;5095053;28;20036;-77
2021/04/07 00:52:45;;;;;;;2.75;1.95;;;;;;;-0.51;65.29;96018.00;5095967;28;20036;-78
2021/04/07 00:55:13;;;;;;;2.90;1.80;;;;;;;-0.53;65.53;96014.00;5096102;28;20464;-77
2021/04/07 00:57:41;;;;;;;3.45;2.33;;;;;;;-0.52;65.50;96020.78;5095664;28;20036;-77
2021/04/07 01:00:11;;;;;;;1.90;1.80;;;;;;;-0.50;65.77;96027.38;5095944;28;20047;-77
2021/04/07 01:02:39;;;;;;;2.10;1.90;;;;;;;-0.50;65.76;96026.56;5095474;28;20036;-77
2021/04/07 01:05:08;;;;;;;3.55;2.10;;;;;;;-0.54;65.79;96031.22;5077529;28;20039;-77
2021/04/07 01:07:37;;;;;;;2.75;2.53;;;;;;;-0.57;65.49;96028.16;5095832;28;20037;-77
2021/04/07 01:10:08;;;;;;;2.28;1.75;;;;;;;-0.60;65.66;96031.84;5095491;28;20476;-77
2021/04/07 01:12:37;;;;;;;2.20;1.98;;;;;;;-0.62;65.59;96028.63;5096151;28;20048;-77
2021/04/07 01:15:06;;;;;;;2.88;2.40;;;;;;;-0.62;65.70;96033.78;5095391;28;20499;-77
2021/04/07 01:17:33;;;;;;;3.65;2.20;;;;;;;-0.66;65.88;96025.56;5095484;28;20051;-77
2021/04/07 01:20:03;;;;;;;2.58;2.10;;;;;;;-0.67;65.86;96018.81;5094893;28;20056;-77
2021/04/07 01:22:33;;;;;;;3.03;2.22;;;;;;;-0.65;65.65;96027.19;5095215;28;20036;-77
2021/04/07 01:25:01;;;;;;;4.13;2.50;;;;;;;-0.66;65.80;96028.13;5094378;28;20052;-77
2021/04/07 01:27:28;;;;;;;5.57;2.60;;;;;;;-0.66;65.86;96029.91;5095313;28;20036;-77
2021/04/07 01:29:56;;;;;;;2.70;2.00;;;;;;;-0.66;65.82;96040.22;5095218;28;20036;-77
2021/04/07 01:32:24;;;;;;;2.05;1.92;;;;;;;-0.69;65.86;96031.03;5076658;28;20049;-77
2021/04/07 01:34:51;;;;;;;2.20;2.00;;;;;;;-0.70;65.72;96036.34;5095213;28;20038;-77
2021/04/07 01:37:20;;;;;;;4.90;2.47;;;;;;;-0.72;65.69;96036.50;5093921;28;20412;-77
2021/04/07 01:39:47;;;;;;;3.05;2.38;;;;;;;-0.73;65.97;96040.03;5094789;28;20043;-77
2021/04/07 01:42:14;;;;;;;3.08;2.10;;;;;;;-0.73;65.76;96044.38;5094886;28;20047;-77
2021/04/07 01:44:41;;;;;;;2.30;2.10;;;;;;;-0.76;65.68;96042.91;5093938;28;20044;-77
2021/04/07 01:47:09;;;;;;;3.10;2.03;;;;;;;-0.82;65.54;96049.50;5094840;28;20051;-77
2021/04/07 01:49:37;;;;;;;2.67;2.47;;;;;;;-0.85;65.95;96052.38;5093819;28;20047;-77
2021/04/07 01:52:06;;;;;;;3.65;1.98;;;;;;;-0.87;66.07;96059.47;5095383;28;20039;-77
2021/04/07 01:54:35;;;;;;;2.70;2.13;;;;;;;-0.91;66.03;96060.72;5094626;28;20036;-77
2021/04/07 01:57:02;;;;;;;2.63;2.42;;;;;;;-0.91;65.87;96065.06;5094770;28;20028;-77
2021/04/07 01:59:31;;;;;;;2.97;2.25;;;;;;;-0.94;66.17;96070.53;5076825;28;20036;-77
2021/04/07 02:01:59;;;;;;;3.50;2.40;;;;;;;-0.95;65.87;96066.34;5094438;28;20480;-78
2021/04/07 02:04:28;;;;;;;2.38;2.17;;;;;;;-0.98;66.14;96067.47;5094589;28;20032;-77
2021/04/07 02:06:57;;;;;;;3.03;2.22;;;;;;;-0.98;66.10;96066.66;5076640;28;20036;-77
2021/04/07 02:09:25;;;;;;;2.80;2.25;;;;;;;-0.99;65.96;96065.03;5093437;28;20060;-78
2021/04/07 02:11:54;;;;;;;3.40;2.55;;;;;;;-0.99;66.22;96065.03;5094528;28;20043;-77
2021/04/07 02:14:23;;;;;;;3.72;2.40;;;;;;;-0.99;66.21;96073.56;5094268;28;20069;-77
2021/04/07 02:16:57;;;;;;;3.55;3.00;;;;;;;-0.99;66.07;96065.03;5094293;28;20036;-77
2021/04/07 02:19:26;;;;;;;2.55;2.35;;;;;;;-0.99;66.03;96068.41;5093631;28;20047;-78
2021/04/07 02:22:16;;;;;;;3.22;2.53;;;;;;;-1.00;66.85;96071.97;5094252;28;20066;-77
2021/04/07 02:24:46;;;;;;;2.97;2.78;;;;;;;-1.01;66.34;96078.06;5094190;28;20032;-77
2021/04/07 02:27:18;;;;;;;3.42;2.42;;;;;;;-1.01;66.22;96078.06;5093911;28;20114;-77
2021/04/07 02:29:49;;;;;;;2.28;2.15;;;;;;;-1.02;66.29;96074.69;5094185;28;20035;-77
2021/04/07 02:32:17;;;;;;;3.88;2.88;;;;;;;-1.01;66.20;96080.63;5094366;28;20110;-77
2021/04/07 02:34:45;;;;;;;2.55;2.20;;;;;;;-1.02;66.38;96084.19;5093882;28;20039;-77
2021/04/07 02:37:14;;;;;;;2.75;2.50;;;;;;;-1.02;66.24;96087.56;5094037;28;20036;-77
2021/04/07 02:39:43;;;;;;;2.60;2.40;;;;;;;-1.04;66.40;96081.75;5093652;28;20044;-77
2021/04/07 02:42:12;;;;;;;3.78;2.92;;;;;;;-1.01;66.29;96093.50;5094172;28;20044;-77
2021/04/07 02:44:41;;;;;;;2.67;2.40;;;;;;;-1.01;66.43;96101.22;5094041;28;20047;-77
2021/04/07 02:47:08;;;;;;;3.22;2.50;;;;;;;-1.06;66.00;96100.88;5093716;28;20028;-78
2021/04/07 02:49:36;;;;;;;3.35;2.80;;;;;;;-1.12;65.91;96104.06;5094011;28;20043;-77
2021/04/07 02:52:05;;;;;;;3.38;2.60;;;;;;;-1.18;66.52;96105.47;5093671;28;20054;-77
2021/04/07 02:54:33;;;;;;;2.38;2.17;;;;;;;-1.25;66.14;96114.78;5093434;28;20028;-77
2021/04/07 02:57:05;;;;;;;3.22;2.53;;;;;;;-1.28;66.42;96118.47;5093744;28;20047;-77
2021/04/07 02:59:34;;;;;;;2.83;2.42;;;;;;;-1.33;66.05;96114.72;5093996;28;20396;-77
2021/04/07 03:02:03;;;;;;;2.75;2.55;;;;;;;-1.38;66.02;96124.69;5093592;28;20110;-78
2021/04/07 03:04:30;;;;;;;3.30;3.00;;;;;;;-1.48;66.23;96120.41;5081762;28;20038;-77
2021/04/07 03:06:58;;;;;;;4.43;3.05;;;;;;;-1.50;66.28;96114.63;5093318;28;20036;-77
2021/04/07 03:09:26;;;;;;;2.80;2.60;;;;;;;-1.52;66.43;96115.72;5093754;28;20040;-77
2021/04/07 03:11:53;;;;;;;2.92;2.22;;;;;;;-1.50;66.49;96122.34;5093293;28;20040;-77
2021/04/07 03:14:21;;;;;;;2.42;2.22;;;;;;;-1.50;66.20;96119.75;5093670;28;20047;-77
2021/04/07 03:16:49;;;;;;;2.90;2.60;;;;;;;-1.49;66.29;96123.13;5074730;28;20404;-77
2021/04/07 03:19:17;;;;;;;3.00;2.63;;;;;;;-1.48;66.35;96129.91;5092462;28;20051;-78
2021/04/07 03:21:45;;;;;;;3.45;2.70;;;;;;;-1.50;66.05;96124.91;5084538;28;20055;-77
2021/04/07 03:24:13;;;;;;;2.80;2.60;;;;;;;-1.51;66.26;96136.16;5093274;28;20043;-77
2021/04/07 03:26:40;;;;;;;2.88;2.53;;;;;;;-1.49;66.52;96134.25;5093551;28;20400;-77
2021/04/07 03:29:08;;;;;;;2.72;2.53;;;;;;;-1.50;66.22;96134.38;5093116;28;20036;-77
2021/04/07 03:31:35;;;;;;;5.15;2.85;;;;;;;-1.50;66.37;96135.19;5092213;28;20039;-77
2021/04/07 03:34:02;;;;;;;2.92;2.40;;;;;;;-1.48;66.00;96142.75;5075212;28;20047;-77
2021/04/07 03:36:29;;;;;;;5.10;3.15;;;;;;;-1.38;66.41;96155.53;5092412;28;20062;-77
2021/04/07 03:38:57;;;;;;;4.82;2.47;;;;;;;-1.36;66.45;96149.28;5093003;28;20400;-77
2021/04/07 03:41:24;;;;;;;4.03;2.85;;;;;;;-1.34;66.13;96152.50;5078373;28;20028;-77
2021/04/07 03:43:52;;;;;;;5.07;3.10;;;;;;;-1.33;66.13;96166.97;5097377;28;20040;-77
2021/04/07 03:46:20;;;;;;;3.92;2.70;;;;;;;-1.30;66.20;96174.41;5097301;28;20032;-77
2021/04/07 03:48:48;;;;;;;3.60;2.53;;;;;;;-1.33;66.08;96177.25;5096485;28;20044;-77
2021/04/07 03:51:15;;;;;;;3.85;2.50;;;;;;;-1.33;66.28;96176.47;5097195;28;20043;-77
2021/04/07 03:53:43;;;;;;;3.13;2.60;;;;;;;-1.33;66.44;96182.41;5096527;28;20043;-77
2021/04/07 03:56:14;;;;;;;2.75;2.55;;;;;;;-1.29;66.95;96194.00;5096173;28;20052;-77
2021/04/07 03:58:41;;;;;;;3.35;2.90;;;;;;;-1.36;66.40;96181.91;5095450;28;20051;-77
2021/04/07 04:01:08;;;;;;;3.90;2.83;;;;;;;-1.45;66.40;96186.16;5079087;28;20040;-77
2021/04/07 04:03:34;;;;;;;3.50;3.03;;;;;;;-1.42;66.56;96187.66;5095850;28;20051;-77
2021/04/07 04:06:00;;;;;;;3.20;2.83;;;;;;;-1.42;67.05;96188.47;5097167;28;20044;-77
2021/04/07 04:08:28;;;;;;;3.53;3.10;;;;;;;-1.39;67.33;96198.44;5096685;28;20465;-77
2021/04/07 04:10:56;;;;;;;4.30;2.70;;;;;;;-1.32;67.52;96201.25;5096958;28;20047;-77
2021/04/07 04:13:24;;;;;;;3.60;3.03;;;;;;;-1.30;67.39;96196.72;5096871;28;20047;-77
2021/04/07 04:15:52;;;;;;;3.30;2.78;;;;;;;-1.29;67.41;96200.94;5097036;28;20047;-77
2021/04/07 04:18:20;;;;;;;4.28;3.35;;;;;;;-1.32;67.40;96198.66;5096857;28;20044;-78
2021/04/07 04:20:48;;;;;;;3.05;2.78;;;;;;;-1.33;67.59;96210.69;5094336;28;20484;-77
2021/04/07 04:23:16;;;;;;;3.10;2.80;;;;;;;-1.37;67.37;96217.09;5094411;28;20063;-77
2021/04/07 04:25:44;;;;;;;3.55;3.00;;;;;;;-1.35;67.49;96222.09;5080280;28;20032;-77
2021/04/07 04:28:12;;;;;;;4.03;3.15;;;;;;;-1.29;67.87;96226.66;5094947;28;20388;-77
2021/04/07 04:30:40;;;;;;;3.05;2.67;;;;;;;-1.21;67.48;96223.34;5077541;28;20396;-77
2021/04/07 04:33:08;;;;;;;2.97;2.72;;;;;;;-1.20;67.40;96223.19;5057040;28;20029;-77
2021/04/07 04:35:36;;;;;;;3.50;3.20;;;;;;;-1.21;67.30;96231.88;5088583;28;20044;-77
2021/04/07 04:38:04;;;;;;;3.90;2.88;;;;;;;-1.20;67.21;96232.66;5076882;28;20036;-77
2021/04/07 04:40:31;;;;;;;3.10;2.83;;;;;;;-1.17;67.29;96237.53;5093924;28;20052;-77
2021/04/07 04:42:59;;;;;;;3.70;2.75;;;;;;;-1.18;67.22;96238.47;5095769;28;20384;-77
2021/04/07 04:45:27;;;;;;;3.42;3.03;;;;;;;-1.15;67.48;96245.91;5076805;28;20048;-77
2021/04/07 04:47:54;;;;;;;3.63;2.58;;;;;;;-1.20;67.19;96248.09;5077039;28;20032;-77
2021/04/07 04:50:21;;;;;;;3.72;2.65;;;;;;;-1.24;67.00;96250.16;5076757;28;20040;-77
2021/04/07 04:52:48;;;;;;;3.42;2.83;;;;;;;-1.26;67.00;96254.63;5094660;28;20484;-78
2021/04/07 04:55:16;;;;;;;4.85;2.95;;;;;;;-1.28;67.08;96254.81;5076827;28;20047;-77
2021/04/07 04:57:44;;;;;;;4.28;2.80;;;;;;;-1.29;66.83;96266.03;5093525;28;20055;-77
2021/04/07 05:00:12;;;;;;;2.92;2.60;;;;;;;-1.32;66.33;96262.97;5094707;28;20047;-77
2021/04/07 05:02:40;;;;;;;4.30;3.05;;;;;;;-1.38;66.85;96272.09;5094738;28;20460;-78
2021/04/07 05:05:08;;;;;;;4.85;2.55;;;;;;;-1.36;66.42;96274.53;5094560;28;20028;-78
2021/04/07 05:07:35;;;;;;;2.63;2.30;;;;;;;-1.36;66.47;96277.88;5059743;28;20495;-78
2021/04/07 05:10:03;;;;;;;4.32;2.30;;;;;;;-1.36;66.49;96280.47;5094929;28;20036;-77
2021/04/07 05:12:31;;;;;;;3.65;2.80;;;;;;;-1.31;66.54;96293.69;5094863;28;20055;-77
2021/04/07 05:14:59;;;;;;;3.90;2.38;;;;;;;-1.25;66.55;96293.09;5093832;28;20048;-77
2021/04/07 05:17:28;;;;;;;3.70;2.72;;;;;;;-1.22;66.37;96299.69;5093825;28;20040;-77
2021/04/07 05:19:56;;;;;;;2.97;2.30;;;;;;;-1.27;66.03;96296.78;5069877;28;697146;-78
2021/04/07 05:22:23;;;;;;;4.15;2.65;;;;;;;-1.29;65.88;96302.06;5095573;28;20392;-78
2021/04/07 05:24:51;;;;;;;2.80;2.38;;;;;;;-1.34;66.17;96308.63;5095135;28;20043;-78
2021/04/07 05:27:17;;;;;;;3.95;2.80;;;;;;;-1.35;66.11;96309.56;5094621;28;20048;-77
2021/04/07 05:29:44;;;;;;;4.10;2.85;;;;;;;-1.32;66.13;96311.84;5095175;28;20036;-77
2021/04/07 05:32:12;;;;;;;3.50;2.63;;;;;;;-1.27;65.77;96325.06;5077345;28;20071;-78
2021/04/07 05:34:40;;;;;;;2.95;2.42;;;;;;;-1.29;66.11;96322.63;5076633;28;20480;-77
2021/04/07 05:37:07;;;;;;;3.33;2.55;;;;;;;-1.24;66.27;96333.31;5094774;28;20055;-77
2021/04/07 05:39:35;;;;;;;3.28;2.85;;;;;;;-1.16;65.82;96334.34;5095221;28;20384;-77
2021/04/07 05:42:03;;;;;;;3.63;3.00;;;;;;;-1.07;66.02;96343.72;5076245;28;20048;-77
2021/04/07 05:44:31;;;;;;;3.05;2.63;;;;;;;-0.91;65.73;96350.78;5094755;28;20047;-78
2021/04/07 05:46:59;;;;;;;4.53;2.45;;;;;;;-0.65;65.75;96354.22;5094923;28;20040;-78
2021/04/07 05:49:26;;;;;;;5.43;2.88;;;;;;;0.02;66.35;96358.81;5095015;28;20043;-77
2021/04/07 05:51:53;;;;;;;2.97;2.42;;;;;;;1.05;65.67;96360.38;5094332;28;20048;-77
2021/04/07 05:54:19;;;;;;;2.55;2.22;;;;;;;2.01;65.18;96375.97;5095125;28;20040;-78
2021/04/07 05:56:45;;;;;;;3.25;2.33;;;;;;;2.46;63.73;96381.50;5076593;28;20031;-78
2021/04/07 05:59:12;;;;;;;3.72;2.42;;;;;;;2.31;62.28;96375.41;5076524;28;20032;-78
2021/04/07 06:01:38;;;;;;;2.70;2.47;;;;;;;1.95;61.30;96381.00;5094355;28;20401;-78
2021/04/07 06:04:04;;;;;;;3.65;2.65;;;;;;;1.72;61.26;96376.53;5075766;28;20039;-78
2021/04/07 06:06:30;;;;;;;4.75;2.40;;;;;;;1.55;61.14;96386.06;5093333;28;20051;-78
2021/04/07 06:08:57;;;;;;;3.10;2.17;;;;;;;1.35;61.16;96384.81;5094698;28;20043;-78
2021/04/07 06:11:23;;;;;;;10.20;9.23;;;;;;;1.70;61.84;96399.16;5093497;28;20044;-78
2021/04/07 06:13:49;;;;;;;3.15;2.17;;;;;;;2.48;62.14;96405.44;5094190;28;20043;-78
2021/04/07 06:16:16;;;;;;;5.03;3.17;;;;;;;2.92;61.05;96397.13;5094279;28;20036;-78
2021/04/07 06:18:42;;;;;;;23.17;16.33;;;;;;;2.80;59.60;96399.28;5094137;28;20381;-78
2021/04/07 06:21:09;;;;;;;3.03;2.58;;;;;;;2.38;58.95;96397.06;5094449;28;20052;-78
2021/04/07 06:23:35;;;;;;;2.60;2.10;;;;;;;1.98;59.07;96403.97;5094235;28;20054;-78
2021/04/07 06:26:02;;;;;;;2.50;2.13;;;;;;;1.66;59.01;96397.88;5094219;28;20043;-78
2021/04/07 06:28:28;;;;;;;2.38;1.90;;;;;;;1.33;59.10;96408.22;5094105;28;20040;-78
2021/04/07 06:31:04;;;;;;;4.32;2.40;;;;;;;1.20;58.16;96405.31;5093313;28;20035;-78
2021/04/07 06:33:32;;;;;;;3.15;2.20;;;;;;;1.17;59.58;96418.50;5075906;28;20032;-78
2021/04/07 06:36:04;;;;;;;3.03;2.10;;;;;;;1.50;59.55;96427.09;5093402;28;20036;-78
2021/04/07 06:38:33;;;;;;;3.30;1.92;;;;;;;1.83;59.67;96427.91;5081567;28;20531;-78
2021/04/07 06:41:00;;;;;;;2.65;2.38;;;;;;;1.71;58.75;96424.03;5093859;28;20032;-78
2021/04/07 06:43:29;;;;;;;3.15;1.90;;;;;;;1.54;58.13;96417.25;5093958;28;20036;-78
2021/04/07 06:45:56;;;;;;;2.95;1.98;;;;;;;1.33;58.30;96413.38;5084431;28;20032;-77
2021/04/07 06:48:22;;;;;;;3.42;2.15;;;;;;;1.31;58.71;96420.47;5092980;28;20621;-78
2021/04/07 06:50:51;;;;;;;2.47;2.08;;;;;;;1.58;58.61;96416.78;5076282;28;20051;-78
2021/04/07 06:53:22;;;;;;;3.55;2.20;;;;;;;1.68;58.49;96424.38;5093555;28;20499;-78
2021/04/07 06:55:48;;;;;;;2.40;2.17;;;;;;;1.73;58.21;96424.69;5093477;28;20036;-78
2021/04/07 06:58:15;;;;;;;6.97;2.15;;;;;;;1.65;57.82;96429.06;5093988;28;20043;-78
2021/04/07 07:00:41;;;;;;;3.88;2.67;;;;;;;1.61;57.63;96434.53;5093398;28;20039;-78
2021/04/07 07:03:13;;;;;;;3.97;2.53;;;;;;;1.57;57.46;96435.03;5093535;28;20047;-78
2021/04/07 07:05:43;;;;;;;2.47;2.20;;;;;;;1.58;57.35;96440.03;5081528;28;20036;-78
2021/04/07 07:08:12;;;;;;;2.45;2.03;;;;;;;1.58;57.71;96447.78;5093389;28;20047;-79
2021/04/07 07:10:49;;;;;;;5.13;2.20;;;;;;;1.61;56.42;96439.69;5093227;28;20036;-78
2021/04/07 07:13:24;;;;;;;3.63;2.17;;;;;;;1.55;56.85;96445.50;5093680;28;20040;-78
2021/04/07 07:15:51;;;;;;;3.35;1.90;;;;;;;1.35;56.92;96446.81;5093481;28;20032;-78
2021/04/07 07:18:25;;;;;;;2.60;2.05;;;;;;;1.25;55.43;96443.56;5093575;28;20039;-78
2021/04/07 07:20:52;;;;;;;5.75;2.50;;;;;;;1.16;56.66;96455.66;5093498;28;20047;-78
2021/04/07 07:23:30;;;;;;;2.20;1.75;;;;;;;1.18;55.34;96445.97;5093602;28;20052;-78
2021/04/07 07:26:07;;;;;;;2.47;1.85;;;;;;;1.23;56.32;96464.38;5093511;28;20506;-78
2021/04/07 07:28:40;;;;;;;1.80;1.63;;;;;;;1.30;56.31;96462.78;5093485;28;20036;-78
2021/04/07 07:31:26;;;;;;;3.63;1.65;;;;;;;1.65;54.43;96453.13;5093284;28;20036;-78
2021/04/07 07:33:53;;;;;;;1.65;1.45;;;;;;;2.32;56.33;96463.22;5077788;28;20392;-78
2021/04/07 07:36:22;;;;;;;3.85;2.13;;;;;;;2.91;55.49;96468.03;5092989;28;20040;-78
2021/04/07 07:38:54;;;;;;;2.75;1.77;;;;;;;3.02;54.29;96457.31;5093258;28;20373;-78
2021/04/07 07:41:27;;;;;;;2.72;1.88;;;;;;;2.96;50.92;96428.66;5093161;28;20043;-78
2021/04/07 07:43:54;;;;;;;1.23;1.00;;;;;;;2.94;53.97;96451.34;5092882;28;20052;-78
2021/04/07 07:46:26;;;;;;;2.53;1.48;;;;;;;3.03;52.80;96447.75;5092391;28;20040;-78
2021/04/07 07:48:53;;;;;;;3.88;1.48;;;;;;;3.05;53.00;96446.59;5084310;28;20043;-78
2021/04/07 07:51:22;;;;;;;3.25;1.30;;;;;;;2.79;52.17;96444.31;5092983;28;20032;-78
2021/04/07 07:53:50;;;;;;;2.40;1.40;;;;;;;2.42;52.45;96450.91;5093235;28;20488;-78
2021/04/07 07:56:20;;;;;;;2.83;1.27;;;;;;;1.91;51.47;96442.63;5074745;28;20047;-78
2021/04/07 07:58:52;;;;;;;2.35;1.30;;;;;;;1.69;52.79;96458.78;5091887;28;20048;-78
2021/04/07 08:01:20;;;;;;;2.72;1.25;;;;;;;1.41;53.23;96467.63;5093097;28;20149;-77
2021/04/07 08:03:50;;;;;;;4.47;1.50;;;;;;;1.22;53.80;96493.78;5092207;28;20056;-78
2021/04/07 08:06:21;;;;;;;3.20;1.58;;;;;;;1.14;54.42;96504.09;5076314;28;20047;-78
2021/04/07 08:09:01;;;;;;;3.05;1.60;;;;;;;1.19;54.75;96504.41;5092742;28;20396;-78
2021/04/07 08:11:34;;;;;;;2.45;1.33;;;;;;;1.30;54.80;96509.28;5092666;28;20040;-78
2021/04/07 08:14:06;;;;;;;1.63;1.33;;;;;;;1.56;54.75;96498.84;5092665;28;20044;-78
2021/04/07 08:16:37;;;;;;;4.28;1.48;;;;;;;1.75;54.57;96500.31;5091663;28;20040;-78
2021/04/07 08:19:08;;;;;;;5.45;3.58;;;;;;;1.92;54.09;96497.72;5091168;28;20044;-78
2021/04/07 08:21:45;;;;;;;2.05;1.50;;;;;;;1.92;53.40;96497.72;5091795;28;20048;-77
2021/04/07 08:24:17;;;;;;;3.10;1.40;;;;;;;1.92;53.71;96497.72;5091840;28;20045;-78
2021/04/07 08:26:48;;;;;;;4.43;1.80;;;;;;;1.73;53.47;96501.44;5093796;28;20503;-77
2021/04/07 08:29:15;;;;;;;2.58;1.33;;;;;;;1.71;53.78;96499.00;5096604;28;20036;-77
2021/04/07 08:31:45;;;;;;;1.67;1.42;;;;;;;1.85;53.98;96512.25;5096185;28;20032;-78
2021/04/07 08:34:13;;;;;;;1.52;1.42;;;;;;;2.01;53.96;96509.66;5096791;28;20036;-77
2021/04/07 08:36:42;;;;;;;2.63;1.60;;;;;;;2.36;53.89;96521.44;5078201;28;20036;-78
2021/04/07 08:39:19;;;;;;;1.92;1.58;;;;;;;2.72;52.87;96515.84;5078096;28;20048;-78
2021/04/07 08:41:48;;;;;;;2.22;1.63;;;;;;;2.79;53.06;96514.25;5094490;28;20048;-77
2021/04/07 08:44:19;;;;;;;2.63;1.55;;;;;;;2.86;52.69;96516.97;5096213;28;20400;-78
2021/04/07 08:46:59;;;;;;;4.40;1.58;;;;;;;2.88;52.06;96512.41;5096140;28;20032;-78
2021/04/07 08:49:41;;;;;;;2.75;1.70;;;;;;;2.80;51.68;96512.44;5096061;28;20036;-77
2021/04/07 08:52:23;;;;;;;2.78;1.52;;;;;;;2.59;52.12;96513.00;5095147;28;20503;-78
2021/04/07 08:54:56;;;;;;;1.90;1.65;;;;;;;2.42;52.80;96520.00;5096108;28;20043;-78
2021/04/07 08:57:25;;;;;;;2.38;1.60;;;;;;;2.23;53.08;96527.13;5084730;28;20055;-77
2021/04/07 08:59:54;;;;;;;2.45;1.70;;;;;;;2.05;53.02;96536.03;5095856;28;20055;-78
2021/04/07 09:02:22;;;;;;;1.98;1.50;;;;;;;1.96;53.94;96546.38;5095974;28;20047;-77
2021/04/07 09:05:04;;;;;;;2.45;1.77;;;;;;;1.84;55.51;96573.50;5095641;28;20046;-78
2021/04/07 09:07:43;;;;;;;3.47;2.25;;;;;;;1.75;57.01;96588.22;5094299;28;20044;-78
2021/04/07 09:10:22;;;;;;;2.63;1.70;;;;;;;1.76;56.79;96581.25;5095511;28;20055;-78
2021/04/07 09:12:51;;;;;;;2.80;1.80;;;;;;;1.76;55.41;96579.47;5096044;28;20047;-78
2021/04/07 09:15:23;;;;;;;3.22;2.20;;;;;;;1.83;56.10;96588.22;5079921;28;20538;-78
2021/04/07 09:17:56;;;;;;;3.30;2.10;;;;;;;1.89;55.92;96580.78;5095341;28;20460;-78
2021/04/07 09:20:42;;;;;;;2.42;2.03;;;;;;;2.02;57.21;96599.25;5073844;28;20454;-77
2021/04/07 09:23:21;;;;;;;3.03;2.15;;;;;;;2.25;56.60;96578.72;5074604;28;20051;-77
2021/04/07 09:26:13;;;;;;;6.03;2.25;;;;;;;2.51;55.84;96578.53;5075194;28;20040;-77
2021/04/07 09:28:48;;;;;;;2.65;1.60;;;;;;;2.70;54.50;96558.44;5075165;28;20044;-77
2021/04/07 09:31:21;;;;;;;3.83;1.63;;;;;;;2.73;53.92;96553.75;5074825;28;20059;-77
2021/04/07 09:33:55;;;;;;;1.70;1.60;;;;;;;2.74;53.35;96549.38;5074395;28;20461;-77
2021/04/07 09:36:30;;;;;;;3.72;1.90;;;;;;;2.71;52.62;96545.34;5074247;28;20045;-78
2021/04/07 09:39:05;;;;;;;2.00;1.80;;;;;;;3.09;53.48;96557.66;5073245;28;20424;-78
2021/04/07 09:41:40;;;;;;;1.50;1.40;;;;;;;3.31;52.41;96543.97;5074828;28;20032;-78
2021/04/07 09:44:09;;;;;;;1.98;1.67;;;;;;;3.45;51.58;96519.91;5074698;28;20393;-78
2021/04/07 09:46:41;;;;;;;2.70;1.60;;;;;;;3.45;51.41;96527.69;5073406;28;20028;-78
2021/04/07 09:49:14;;;;;;;1.80;1.63;;;;;;;3.39;51.58;96525.78;5074887;28;20480;-78
2021/04/07 09:51:49;;;;;;;2.80;1.83;;;;;;;3.30;51.02;96532.00;5073648;28;20032;-78
2021/04/07 09:54:24;;;;;;;2.30;1.75;;;;;;;3.29;51.31;96524.38;5074460;28;20032;-77
2021/04/07 09:57:04;;;;;;;3.50;1.65;;;;;;;3.23;49.87;96523.25;5074589;28;20028;-77
2021/04/07 09:59:59;;;;;;;3.92;1.67;;;;;;;3.21;48.01;96514.84;5074532;28;20033;-77
2021/04/07 10:02:33;;;;;;;2.75;1.73;;;;;;;3.11;51.10;96538.41;5070934;28;20041;-78
2021/04/07 10:05:02;;;;;;;2.45;2.13;;;;;;;3.02;51.33;96555.75;5074173;28;20041;-78
2021/04/07 10:07:35;;;;;;;3.05;2.05;;;;;;;2.84;50.93;96544.81;5072333;28;20056;-77
2021/04/07 10:10:11;;;;;;;2.97;2.08;;;;;;;2.82;50.73;96539.78;5074529;28;20037;-77
2021/04/07 10:12:43;;;;;;;2.90;1.70;;;;;;;2.84;50.77;96543.03;5061810;28;20048;-78
2021/04/07 10:15:20;;;;;;;2.35;1.50;;;;;;;2.82;49.43;96542.38;5074312;28;20400;-78
2021/04/07 10:17:55;;;;;;;3.75;1.65;;;;;;;2.73;50.74;96547.72;5074136;28;20044;-78
2021/04/07 10:20:32;;;;;;;3.47;1.52;;;;;;;2.85;49.85;96551.59;5085108;28;20056;-77
2021/04/07 10:23:16;;;;;;;2.40;1.58;;;;;;;2.90;49.71;96545.91;5092571;28;20055;-78
2021/04/07 10:25:47;;;;;;;2.72;1.75;;;;;;;2.99;50.61;96556.09;5093218;28;20048;-77
2021/04/07 10:28:22;;;;;;;6.30;2.30;;;;;;;3.05;49.69;96546.84;5089647;28;20048;-77
2021/04/07 10:30:59;;;;;;;3.22;1.40;;;;;;;3.01;49.86;96545.56;5076050;28;20056;-78
2021/04/07 10:33:32;;;;;;;2.13;1.83;;;;;;;3.01;50.08;96554.13;5085899;28;20044;-77
2021/04/07 10:36:06;;;;;;;2.95;1.95;;;;;;;3.05;49.69;96549.44;5093959;28;20035;-78
2021/04/07 10:38:48;;;;;;;5.35;1.77;;;;;;;3.10;49.94;96561.88;5093948;28;20032;-78
2021/04/07 10:41:21;;;;;;;2.88;1.98;;;;;;;3.20;50.00;96552.13;5093720;28;20028;-77
2021/04/07 10:43:50;;;;;;;3.72;1.80;;;;;;;3.34;50.23;96563.53;5093725;28;20051;-78
2021/04/07 10:46:33;;;;;;;2.92;2.00;;;;;;;3.60;49.31;96552.91;5092452;28;20043;-78
2021/04/07 10:49:05;;;;;;;2.67;1.70;;;;;;;4.03;49.79;96548.88;5093209;28;20047;-78
2021/04/07 10:51:36;;;;;;;2.58;1.80;;;;;;;4.31;49.13;96530.16;5093715;28;20040;-78
2021/04/07 10:54:07;;;;;;;3.65;1.75;;;;;;;4.62;48.90;96537.00;5094300;28;20044;-78
2021/04/07 10:56:35;;;;;;;2.90;1.30;;;;;;;4.77;48.11;96543.03;5092859;28;20051;-78
2021/04/07 10:59:11;;;;;;;2.70;1.30;;;;;;;4.91;46.58;96527.59;5092610;28;20517;-78
2021/04/07 11:01:41;;;;;;;1.95;1.48;;;;;;;4.97;47.41;96543.28;5091603;28;20051;-78
2021/04/07 11:04:20;;;;;;;2.40;1.20;;;;;;;4.79;45.11;96532.47;5092551;28;20107;-78
2021/04/07 11:06:59;;;;;;;2.72;1.67;;;;;;;4.65;44.87;96521.88;5083544;28;20499;-78
2021/04/07 11:09:35;;;;;;;2.22;1.58;;;;;;;4.61;46.85;96546.59;5093469;28;20032;-78
2021/04/07 11:12:07;;;;;;;4.38;2.10;;;;;;;4.56;46.92;96546.31;5093303;28;20036;-78
2021/04/07 11:14:39;;;;;;;5.05;2.35;;;;;;;4.50;46.77;96565.19;5093389;28;20036;-78
2021/04/07 11:17:19;;;;;;;2.50;1.80;;;;;;;4.37;44.85;96580.59;5092154;28;20040;-78
2021/04/07 11:19:50;;;;;;;;;;;;;;;4.35;43.09;96564.38;5092220;28;20053;-78
2021/04/07 11:22:24;;;;;;;2.40;1.60;;;;;;;4.17;44.96;96601.81;5093071;28;20364;-78
2021/04/07 11:24:58;;;;;;;2.50;1.63;;;;;;;4.20;46.07;96590.25;5093489;28;20051;-78
2021/04/07 11:27:39;;;;;;;2.85;1.50;;;;;;;4.27;44.68;96586.00;5075043;28;20040;-78
2021/04/07 11:30:12;;;;;;;2.65;1.58;;;;;;;4.32;45.86;96601.84;5093082;28;20036;-77
2021/04/07 11:32:48;;;;;;;;;;;;;;;4.56;43.32;96566.28;5075463;28;20051;-78
2021/04/07 11:35:29;;;;;;;4.00;1.77;;;;;;;5.04;45.79;96603.13;5093251;28;19908;-78
2021/04/07 11:43:10;;;;;;;4.22;1.45;;;;;;;4.80;44.11;96599.81;5082873;28;20040;-78
2021/04/07 11:45:37;;;;;;;;;;;;;;;4.50;42.66;96598.16;5093530;28;20440;-78
2021/04/07 11:48:05;;;;;;;4.78;1.90;;;;;;;4.32;44.84;96617.44;5092910;28;19915;-78
2021/04/07 11:50:31;;;;;;;3.47;1.70;;;;;;;4.33;44.99;96624.25;5092973;28;20032;-78
2021/04/07 11:52:57;;;;;;;2.45;1.88;;;;;;;4.39;45.11;96609.75;5093135;28;20036;-77
2021/04/07 11:55:24;;;;;;;2.38;1.80;;;;;;;4.39;44.85;96618.38;5092744;28;20040;-78
2021/04/07 11:57:50;;;;;;;3.75;2.28;;;;;;;4.27;44.70;96620.56;5092743;28;20036;-78